createdAt,value
2019-05-01T00:00:59.200Z,10.19
2019-05-01T00:03:34.017Z,10.20
2019-05-01T00:06:10.886Z,10.19
2019-05-01T00:08:42.530Z,10.17
2019-05-01T00:11:14.429Z,10.19
2019-05-01T00:13:46.332Z,10.19
2019-05-01T00:16:18.548Z,10.19
2019-05-01T00:18:50.175Z,10.18
2019-05-01T00:21:21.911Z,10.19
2019-05-01T00:23:54.508Z,10.16
2019-05-01T00:26:26.032Z,10.13
2019-05-01T00:28:58.737Z,10.09
2019-05-01T00:31:30.459Z,10.05
2019-05-01T00:34:02.300Z,10.06
2019-05-01T00:36:35.306Z,10.03
2019-05-01T00:39:09.645Z,10.00
2019-05-01T00:41:41.841Z,9.99
2019-05-01T00:44:13.564Z,9.92
2019-05-01T00:46:45.392Z,9.85
2019-05-01T00:49:17.120Z,9.81
2019-05-01T00:51:48.850Z,9.76
2019-05-01T00:54:20.690Z,9.71
2019-05-01T00:57:00.186Z,9.66
2019-05-01T00:59:36.162Z,9.65
2019-05-01T01:02:12.381Z,9.65
2019-05-01T01:04:43.915Z,9.66
2019-05-01T01:07:15.737Z,9.65
2019-05-01T01:09:47.463Z,9.65
2019-05-01T01:12:19.949Z,9.64
2019-05-01T01:14:51.573Z,9.64
2019-05-01T01:17:23.374Z,9.63
2019-05-01T01:19:55.103Z,9.62
2019-05-01T01:22:29.988Z,9.61
2019-05-01T01:25:02.355Z,9.58
2019-05-01T01:27:35.293Z,9.52
2019-05-01T01:30:08.924Z,9.44
2019-05-01T01:32:40.815Z,9.35
2019-05-01T01:35:12.685Z,9.26
2019-05-01T01:37:44.210Z,9.16
2019-05-01T01:40:16.001Z,9.06
2019-05-01T01:42:49.721Z,8.97
2019-05-01T01:45:22.990Z,8.86
2019-05-01T01:48:12.043Z,8.74
2019-05-01T01:50:46.160Z,8.66
2019-05-01T01:53:20.666Z,8.59
2019-05-01T01:55:52.551Z,8.46
2019-05-01T01:58:25.915Z,8.36
2019-05-01T02:01:11.390Z,8.27
2019-05-01T02:03:44.822Z,8.16
2019-05-01T02:06:16.682Z,8.07
2019-05-01T02:08:56.212Z,7.94
2019-05-01T02:11:23.469Z,7.83
2019-05-01T02:13:58.512Z,7.79
2019-05-01T02:16:30.340Z,7.73
2019-05-01T02:19:02.071Z,7.68
2019-05-01T02:21:33.803Z,7.68
2019-05-01T02:24:06.008Z,7.60
2019-05-01T02:26:40.380Z,7.58
2019-05-01T02:29:17.085Z,7.58
2019-05-01T02:31:52.438Z,7.52
2019-05-01T02:34:26.815Z,7.44
2019-05-01T02:37:02.675Z,7.36
2019-05-01T02:39:36.437Z,7.30
2019-05-01T02:42:10.138Z,7.22
2019-05-01T02:44:50.631Z,7.15
2019-05-01T02:47:26.669Z,7.07
2019-05-01T02:50:09.167Z,6.96
2019-05-01T02:52:43.531Z,6.86
2019-05-01T02:55:23.077Z,6.79
2019-05-01T02:57:55.644Z,6.73
2019-05-01T03:00:27.712Z,6.67
2019-05-01T03:03:00.692Z,6.59
2019-05-01T03:05:32.414Z,6.55
2019-05-01T03:08:04.377Z,6.47
2019-05-01T03:10:36.543Z,6.42
2019-05-01T03:13:08.912Z,6.32
2019-05-01T03:15:40.984Z,6.25
2019-05-01T03:18:14.566Z,6.17
2019-05-01T03:20:50.013Z,6.10
2019-05-01T03:23:39.686Z,6.05
2019-05-01T03:26:12.019Z,6.03
2019-05-01T03:28:44.079Z,6.03
2019-05-01T03:31:16.936Z,6.07
2019-05-01T03:33:49.122Z,6.09
2019-05-01T03:36:20.739Z,6.10
2019-05-01T03:38:53.035Z,6.10
2019-05-01T03:41:24.827Z,6.10
2019-05-01T03:43:57.764Z,6.09
2019-05-01T03:46:29.562Z,6.17
2019-05-01T03:49:01.751Z,6.25
2019-05-01T03:51:33.852Z,6.32
2019-05-01T03:54:07.271Z,6.29
2019-05-01T03:56:39.369Z,6.23
2019-05-01T03:59:10.992Z,6.30
2019-05-01T04:01:56.647Z,6.53
2019-05-01T04:04:31.855Z,6.63
2019-05-01T04:07:03.913Z,6.77
2019-05-01T04:09:37.165Z,6.97
2019-05-01T04:12:09.159Z,7.18
2019-05-01T04:14:41.525Z,7.39
2019-05-01T04:17:15.172Z,7.55
2019-05-01T04:19:47.173Z,8.24
2019-05-01T04:22:19.068Z,9.26
2019-05-01T04:24:51.641Z,8.61
2019-05-01T04:27:25.351Z,8.48
2019-05-01T04:30:04.976Z,8.52
2019-05-01T04:32:52.209Z,8.58
2019-05-01T04:35:25.503Z,8.92
2019-05-01T04:37:57.841Z,9.28
2019-05-01T04:40:29.635Z,9.25
2019-05-01T04:43:01.255Z,9.36
2019-05-01T04:45:33.618Z,9.57
2019-05-01T04:48:05.675Z,9.93
2019-05-01T04:50:37.573Z,11.29
2019-05-01T04:53:09.372Z,11.02
2019-05-01T04:55:41.015Z,13.74
2019-05-01T04:58:13.079Z,13.20
2019-05-01T05:00:44.956Z,12.72
2019-05-01T05:03:18.231Z,11.97
2019-05-01T05:05:49.945Z,11.48
2019-05-01T05:08:21.575Z,11.28
2019-05-01T05:10:55.589Z,11.08
2019-05-01T05:13:29.326Z,11.51
2019-05-01T05:16:08.656Z,11.96
2019-05-01T05:18:40.299Z,11.73
2019-05-01T05:21:13.739Z,12.83
2019-05-01T05:23:46.302Z,12.42
2019-05-01T05:26:18.212Z,12.59
2019-05-01T05:28:51.695Z,14.13
2019-05-01T05:31:26.859Z,13.37
2019-05-01T05:34:01.303Z,13.27
2019-05-01T05:36:36.389Z,12.95
2019-05-01T05:39:26.080Z,12.52
2019-05-01T05:41:59.057Z,12.53
2019-05-01T05:44:30.786Z,12.80
2019-05-01T05:47:02.882Z,16.33
2019-05-01T05:49:34.891Z,15.75
2019-05-01T05:52:10.669Z,14.69
2019-05-01T05:54:45.571Z,15.40
2019-05-01T05:57:30.194Z,15.15
2019-05-01T06:00:20.191Z,15.70
2019-05-01T06:02:55.653Z,17.21
2019-05-01T06:05:34.975Z,18.03
2019-05-01T06:08:11.307Z,18.32
2019-05-01T06:10:53.550Z,18.13
2019-05-01T06:13:44.667Z,17.50
2019-05-01T06:16:25.169Z,17.44
2019-05-01T06:19:09.635Z,18.34
2019-05-01T06:21:43.584Z,17.35
2019-05-01T06:24:20.295Z,17.04
2019-05-01T06:26:52.093Z,16.31
2019-05-01T06:29:24.084Z,16.09
2019-05-01T06:31:58.815Z,16.06
2019-05-01T06:34:29.822Z,17.11
2019-05-01T06:37:03.637Z,17.31
2019-05-01T06:39:35.681Z,18.10
2019-05-01T06:42:09.754Z,19.43
2019-05-01T06:45:01.588Z,18.97
2019-05-01T06:47:38.334Z,17.86
2019-05-01T06:50:17.454Z,18.77
2019-05-01T06:52:50.149Z,20.11
2019-05-01T11:45:17.486Z,20.91
2019-05-01T11:47:49.322Z,20.71
2019-05-01T11:50:22.208Z,21.19
2019-05-01T11:53:02.653Z,21.22
2019-05-01T11:55:35.985Z,20.93
2019-05-01T11:58:10.912Z,20.71
2019-05-01T12:00:45.094Z,20.50
2019-05-01T12:03:16.793Z,20.10
2019-05-01T12:05:48.566Z,19.75
2019-05-01T12:08:24.184Z,19.91
2019-05-01T12:10:56.076Z,19.92
2019-05-01T12:13:27.809Z,20.03
2019-05-01T12:16:07.094Z,20.07
2019-05-01T12:18:38.663Z,20.43
2019-05-01T12:21:10.425Z,20.64
2019-05-01T12:23:42.322Z,20.77
2019-05-01T12:26:15.452Z,20.88
2019-05-01T12:28:47.198Z,20.91
2019-05-01T12:31:18.959Z,21.03
2019-05-01T12:33:50.721Z,21.10
2019-05-01T12:36:35.152Z,21.32
2019-05-01T12:49:51.665Z,21.48
2019-05-01T12:52:46.464Z,21.63
2019-05-01T12:55:35.075Z,21.48
2019-05-01T12:58:18.219Z,21.64
2019-05-01T13:00:53.177Z,21.87
2019-05-01T13:03:25.568Z,22.03
2019-05-01T13:05:59.672Z,22.12
2019-05-01T13:08:32.079Z,22.41
2019-05-01T13:11:05.198Z,22.45
2019-05-01T13:13:40.508Z,22.26
2019-05-01T13:16:23.546Z,21.89
2019-05-01T13:18:58.376Z,22.13
2019-05-01T13:21:30.346Z,21.86
2019-05-01T13:24:04.143Z,22.25
2019-05-01T13:26:40.551Z,21.88
2019-05-01T13:29:19.209Z,21.87
2019-05-01T13:31:58.076Z,21.74
2019-05-01T13:34:32.427Z,21.96
2019-05-01T13:37:06.360Z,22.04
2019-05-01T13:39:39.981Z,21.61
2019-05-01T13:42:27.225Z,21.56
2019-05-01T13:45:00.928Z,21.42
2019-05-01T13:47:36.322Z,20.94
2019-05-01T13:50:12.248Z,20.89
2019-05-01T13:52:46.845Z,20.85
2019-05-01T13:55:18.786Z,20.50
2019-05-01T13:57:50.541Z,20.59
2019-05-01T14:00:23.700Z,20.25
2019-05-01T14:02:55.745Z,19.51
2019-05-01T14:05:27.785Z,18.26
2019-05-01T14:07:59.614Z,17.62
2019-05-01T14:10:34.126Z,17.24
2019-05-01T14:13:09.494Z,17.26
2019-05-01T14:15:41.152Z,17.02
2019-05-01T14:18:17.972Z,17.25
2019-05-01T14:20:53.905Z,17.48
2019-05-01T14:23:44.810Z,17.50
2019-05-01T14:26:18.366Z,17.45
2019-05-01T14:28:51.472Z,17.35
2019-05-01T14:31:23.106Z,17.40
2019-05-01T14:34:01.068Z,17.67
2019-05-01T14:36:28.487Z,17.99
2019-05-01T14:39:00.722Z,18.34
2019-05-01T14:41:34.467Z,18.48
2019-05-01T14:44:06.754Z,18.78
2019-05-01T14:46:38.311Z,19.00
2019-05-01T14:49:10.164Z,18.97
2019-05-01T14:51:41.993Z,19.06
2019-05-01T14:54:13.848Z,19.21
2019-05-01T14:56:45.590Z,19.14
2019-05-01T14:59:17.358Z,19.06
2019-05-01T15:01:49.113Z,19.06
2019-05-01T15:04:20.818Z,19.14
2019-05-01T15:06:52.576Z,19.34
2019-05-01T15:09:24.449Z,19.11
2019-05-01T15:11:56.096Z,18.95
2019-05-01T15:14:29.638Z,18.89
2019-05-01T15:17:09.932Z,18.54
2019-05-01T15:19:46.467Z,18.48
2019-05-01T15:22:21.814Z,18.31
2019-05-01T15:24:53.536Z,18.24
2019-05-01T15:27:25.373Z,18.09
2019-05-01T15:30:07.636Z,17.96
2019-05-01T15:32:43.712Z,18.09
2019-05-01T15:35:17.241Z,18.22
2019-05-01T15:37:56.584Z,18.23
2019-05-01T15:40:31.736Z,18.18
2019-05-01T15:43:17.134Z,18.25
2019-05-01T15:45:59.348Z,18.19
2019-05-01T15:48:37.913Z,18.24
2019-05-01T15:51:12.362Z,18.15
2019-05-01T15:53:44.393Z,18.03
2019-05-01T15:56:16.210Z,17.98
2019-05-01T15:58:50.024Z,17.98
2019-05-01T16:01:23.084Z,18.03
2019-05-01T16:03:59.713Z,18.14
2019-05-01T16:06:31.755Z,18.27
2019-05-01T16:09:07.560Z,18.21
2019-05-01T16:11:57.482Z,18.31
2019-05-01T16:14:32.386Z,18.34
2019-05-01T16:17:05.082Z,18.27
2019-05-01T16:19:37.305Z,18.30
2019-05-01T16:22:09.259Z,18.24
2019-05-01T16:24:49.541Z,18.15
2019-05-01T16:27:22.611Z,18.09
2019-05-01T16:30:06.035Z,18.13
2019-05-01T16:32:40.805Z,18.16
2019-05-01T16:35:13.003Z,18.13
2019-05-01T16:37:50.113Z,18.17
2019-05-01T16:40:35.551Z,18.24
2019-05-01T16:43:09.660Z,18.28
2019-05-01T16:45:41.429Z,18.34
2019-05-01T16:48:13.074Z,18.42
2019-05-01T16:50:45.911Z,18.47
2019-05-01T16:53:18.115Z,18.51
2019-05-01T16:55:49.990Z,18.48
2019-05-01T16:58:23.225Z,18.56
2019-05-01T17:01:03.055Z,18.50
2019-05-01T17:03:52.911Z,18.49
2019-05-01T17:06:45.253Z,18.35
2019-05-01T17:09:36.838Z,18.31
2019-05-01T17:12:12.887Z,18.25
2019-05-01T17:14:46.174Z,18.15
2019-05-01T17:17:20.363Z,18.03
2019-05-01T17:19:56.740Z,17.80
2019-05-01T17:22:29.626Z,17.63
2019-05-01T17:25:02.142Z,17.50
2019-05-01T17:27:35.082Z,17.47
2019-05-01T17:30:10.458Z,17.40
2019-05-01T17:32:44.273Z,17.34
2019-05-01T17:35:15.985Z,17.31
2019-05-01T17:37:47.640Z,17.29
2019-05-01T17:40:21.141Z,17.29
2019-05-01T17:42:54.570Z,17.21
2019-05-01T17:45:29.786Z,17.14
2019-05-01T17:48:03.380Z,17.07
2019-05-01T17:50:37.884Z,16.95
2019-05-01T17:53:09.758Z,16.87
2019-05-01T17:55:41.918Z,16.80
2019-05-01T17:58:14.284Z,16.70
2019-05-01T18:01:05.016Z,16.61
2019-05-01T18:03:46.066Z,16.45
2019-05-01T18:06:22.963Z,16.32
2019-05-01T18:09:03.247Z,16.19
2019-05-01T18:11:31.311Z,16.04
2019-05-01T18:14:05.577Z,16.03
2019-05-01T18:16:37.113Z,16.02
2019-05-01T18:19:10.753Z,15.97
2019-05-01T18:21:46.803Z,15.97
2019-05-01T18:24:39.026Z,15.96
2019-05-01T18:27:27.719Z,15.94
2019-05-01T18:30:06.244Z,15.91
2019-05-01T18:32:46.466Z,15.88
2019-05-01T18:35:16.084Z,15.87
2019-05-01T18:37:51.639Z,15.82
2019-05-01T18:40:28.059Z,15.82
2019-05-01T18:43:00.417Z,15.79
2019-05-01T18:45:45.451Z,15.75
2019-05-01T18:48:18.439Z,15.70
2019-05-01T18:50:54.967Z,15.65
2019-05-01T18:53:28.469Z,15.64
2019-05-01T18:56:05.578Z,15.64
2019-05-01T18:58:36.838Z,15.63
2019-05-01T19:01:09.194Z,15.62
2019-05-01T19:03:44.083Z,15.61
2019-05-01T19:06:17.490Z,15.62
2019-05-01T19:08:50.668Z,15.60
2019-05-01T19:11:22.989Z,15.60
2019-05-01T19:14:00.400Z,15.60
2019-05-01T19:16:39.948Z,15.58
2019-05-01T19:19:13.786Z,15.54
2019-05-01T19:21:48.513Z,15.53
2019-05-01T19:24:26.485Z,15.53
2019-05-01T19:26:59.995Z,15.50
2019-05-01T19:29:33.728Z,15.51
2019-05-01T19:32:08.302Z,15.47
2019-05-01T19:34:40.995Z,15.44
2019-05-01T19:37:16.508Z,15.39
2019-05-01T19:39:53.679Z,15.34
2019-05-01T19:42:24.512Z,15.30
2019-05-01T19:44:57.731Z,15.24
2019-05-01T19:47:31.877Z,15.10
2019-05-01T19:50:09.708Z,15.02
2019-05-01T19:52:43.176Z,14.93
2019-05-01T19:55:14.998Z,14.85
2019-05-01T19:57:46.859Z,14.76
2019-05-01T20:00:24.996Z,14.63
2019-05-01T20:02:59.068Z,14.53
2019-05-01T20:05:32.504Z,14.40
2019-05-01T20:08:04.484Z,14.30
2019-05-01T20:10:37.450Z,14.23
2019-05-01T20:13:13.318Z,14.13
2019-05-01T20:15:46.765Z,14.03
2019-05-01T20:18:19.526Z,13.98
2019-05-01T20:20:52.841Z,13.91
2019-05-01T20:23:31.420Z,13.85
2019-05-01T20:26:03.431Z,13.82
2019-05-01T20:28:37.398Z,13.81
2019-05-01T20:31:17.927Z,13.80
2019-05-01T20:33:55.417Z,13.73
2019-05-01T20:36:29.470Z,13.67
2019-05-01T20:39:07.421Z,13.60
2019-05-01T20:41:41.953Z,13.53
2019-05-01T20:44:18.717Z,13.42
2019-05-01T20:46:47.280Z,13.37
2019-05-01T20:49:20.161Z,13.32
2019-05-01T20:51:52.028Z,13.27
2019-05-01T20:54:27.607Z,13.17
2019-05-01T20:57:07.206Z,13.08
2019-05-01T20:59:42.080Z,13.02
2019-05-01T21:02:15.009Z,12.96
2019-05-01T21:04:54.560Z,12.87
2019-05-01T21:07:29.520Z,12.81
2019-05-01T21:10:05.531Z,12.75
2019-05-01T21:12:37.353Z,12.69
2019-05-01T21:15:09.577Z,12.64
2019-05-01T21:17:44.188Z,12.59
2019-05-01T21:20:14.800Z,12.56
2019-05-01T21:22:46.548Z,12.57
2019-05-01T21:25:18.284Z,12.53
2019-05-01T21:27:50.044Z,12.50
2019-05-01T21:30:23.733Z,12.44
2019-05-01T21:32:59.069Z,12.41
2019-05-01T21:35:29.615Z,12.33
2019-05-01T21:38:02.379Z,12.26
2019-05-01T21:40:40.633Z,12.20
2019-05-01T21:43:08.388Z,12.14
2019-05-01T21:45:40.034Z,12.06
2019-05-01T21:48:13.412Z,11.99
2019-05-01T21:50:45.143Z,11.94
2019-05-01T21:53:16.809Z,11.87
2019-05-01T21:55:48.676Z,11.82
2019-05-01T21:58:21.113Z,11.80
2019-05-01T22:00:55.111Z,11.76
2019-05-01T22:03:27.879Z,11.70
2019-05-01T22:05:59.513Z,11.65
2019-05-01T22:08:34.429Z,11.58
2019-05-01T22:11:05.383Z,11.51
2019-05-01T22:13:43.298Z,11.46
2019-05-01T22:16:24.165Z,11.40
2019-05-01T22:19:00.717Z,11.36
2019-05-01T22:21:43.111Z,11.31
2019-05-01T22:24:32.295Z,11.28
2019-05-01T22:27:05.776Z,11.25
2019-05-01T22:29:42.082Z,11.22
2019-05-01T22:32:31.859Z,11.22
2019-05-01T22:35:08.748Z,11.20
2019-05-01T22:37:41.290Z,11.22
2019-05-01T22:40:15.471Z,11.28
2019-05-01T22:42:47.262Z,11.31
2019-05-01T22:45:24.100Z,11.34
2019-05-01T22:47:55.947Z,11.31
2019-05-01T22:50:28.624Z,11.25
2019-05-01T22:53:00.385Z,11.18
2019-05-01T22:55:33.366Z,11.10
2019-05-01T22:58:05.181Z,11.02
2019-05-01T23:00:41.496Z,10.94
2019-05-01T23:03:15.527Z,10.88
2019-05-01T23:05:47.281Z,10.84
2019-05-01T23:08:18.931Z,10.77
2019-05-01T23:10:50.746Z,10.72
2019-05-01T23:13:23.659Z,10.65
2019-05-01T23:15:56.177Z,10.61
2019-05-01T23:18:29.947Z,10.53
2019-05-01T23:21:01.690Z,10.48
2019-05-01T23:23:33.506Z,10.42
2019-05-01T23:26:05.250Z,10.38
2019-05-01T23:28:39.742Z,10.31
2019-05-01T23:31:10.528Z,10.25
2019-05-01T23:33:45.697Z,10.20
2019-05-01T23:36:23.298Z,10.16
2019-05-01T23:38:49.239Z,10.14
2019-05-01T23:41:24.847Z,10.09
2019-05-01T23:43:58.154Z,10.10
2019-05-01T23:46:29.832Z,10.06
2019-05-01T23:49:01.203Z,10.07
2019-05-01T23:51:34.478Z,10.03
2019-05-01T23:54:06.213Z,9.99
2019-05-01T23:56:37.947Z,9.98
2019-05-01T23:59:09.777Z,9.95
